Time;durP1;ratioP1;P1;durP2;ratioP2;P2;SDS_P1;SDS_P2;PMS_P1;PMS_P2;Temp;Humidity;BMP_temperature;BMP_pressure;BME280_temperature;BME280_humidity;BME280_pressure;Samples;Min_cycle;Max_cycle;Signal;HPM_P1;HPM_P2
2023/04/16 00:02:07;;;;;;;2.30;1.27;;;;;;;3.78;55.57;102643.97;5042888;28;20058;-69
2023/04/16 00:04:34;;;;;;;3.33;0.88;;;;;;;3.73;55.65;102641.22;5039948;28;20405;-68
2023/04/16 00:07:01;;;;;;;2.20;0.93;;;;;;;3.71;55.99;102642.88;5044626;28;20041;-69
2023/04/16 00:09:28;;;;;;;3.70;0.77;;;;;;;3.67;55.71;102646.16;5041519;28;20519;-69
2023/04/16 00:11:56;;;;;;;4.47;0.90;;;;;;;3.64;55.67;102642.56;5047823;28;20485;-69
2023/04/16 00:14:23;;;;;;;2.53;0.70;;;;;;;3.59;56.55;102634.63;5036534;28;20053;-70
2023/04/16 00:16:50;;;;;;;3.30;0.82;;;;;;;3.58;56.32;102636.31;5041615;28;20057;-69
2023/04/16 00:19:17;;;;;;;1.85;0.70;;;;;;;3.57;56.58;102641.44;5041047;28;20059;-69
2023/04/16 00:21:44;;;;;;;4.45;1.00;;;;;;;3.53;56.22;102637.84;5039885;28;20064;-69
2023/04/16 00:24:10;;;;;;;1.33;0.57;;;;;;;3.49;56.17;102632.50;5037686;28;20549;-69
2023/04/16 00:26:37;;;;;;;6.20;1.02;;;;;;;3.45;56.22;102628.91;5036940;28;20138;-69
2023/04/16 00:29:06;;;;;;;3.13;0.88;;;;;;;3.47;56.14;102632.44;5032988;28;20045;-69
2023/04/16 00:31:34;;;;;;;2.85;1.25;;;;;;;3.43;56.48;102619.34;5036361;28;20056;-69
2023/04/16 00:34:01;;;;;;;2.33;0.90;;;;;;;3.40;56.18;102619.22;5043320;28;20053;-69
2023/04/16 00:36:28;;;;;;;7.82;1.00;;;;;;;3.41;56.76;102615.78;5038442;28;20127;-69
2023/04/16 00:38:56;;;;;;;3.17;0.95;;;;;;;3.34;56.26;102614.69;5035646;28;20821;-69
2023/04/16 00:41:23;;;;;;;2.45;1.35;;;;;;;3.35;56.86;102619.00;5036078;28;20057;-69
2023/04/16 00:43:50;;;;;;;5.47;1.15;;;;;;;3.34;56.74;102612.09;5041017;28;20055;-69
2023/04/16 00:46:19;;;;;;;2.92;1.02;;;;;;;3.29;56.80;102605.84;5037847;28;20057;-69
2023/04/16 00:48:47;;;;;;;4.28;1.42;;;;;;;3.29;56.79;102614.47;5048166;28;20144;-69
2023/04/16 00:51:15;;;;;;;5.07;1.15;;;;;;;3.26;56.34;102609.19;5045923;28;20110;-69
2023/04/16 00:53:42;;;;;;;3.55;0.80;;;;;;;3.24;56.83;102610.81;5041616;28;20045;-69
2023/04/16 00:56:10;;;;;;;5.25;1.17;;;;;;;3.22;56.58;102614.19;5042723;28;20045;-69
2023/04/16 00:58:37;;;;;;;2.17;1.08;;;;;;;3.20;56.86;102610.66;5047688;28;20576;-69
2023/04/16 01:01:04;;;;;;;2.92;0.73;;;;;;;3.19;56.67;102614.03;5041591;28;20053;-69
2023/04/16 01:03:38;;;;;;;6.95;1.00;;;;;;;3.16;56.92;102612.22;5039264;28;20135;-69
2023/04/16 01:06:06;;;;;;;2.55;1.77;;;;;;;3.10;56.76;102604.19;5043090;28;20723;-69
2023/04/16 01:08:33;;;;;;;1.85;0.90;;;;;;;3.12;56.83;102610.31;5045439;28;20132;-68
2023/04/16 01:11:00;;;;;;;2.05;0.90;;;;;;;3.07;57.30;102604.06;5043526;28;20055;-68
2023/04/16 01:13:26;;;;;;;2.72;0.65;;;;;;;3.04;56.85;102593.63;5044336;28;20064;-69
2023/04/16 01:15:53;;;;;;;2.92;1.23;;;;;;;3.06;57.36;102603.19;5042637;28;20133;-69
2023/04/16 01:18:22;;;;;;;1.63;0.80;;;;;;;3.04;56.75;102596.22;5038120;28;20088;-69
2023/04/16 01:20:50;;;;;;;5.00;1.15;;;;;;;3.02;57.17;102590.13;5035212;28;20052;-69
2023/04/16 01:23:18;;;;;;;5.90;0.95;;;;;;;3.00;57.06;102597.78;5037421;28;20498;-68
2023/04/16 01:25:45;;;;;;;5.47;1.33;;;;;;;2.99;57.44;102590.88;5044679;28;20056;-69
2023/04/16 01:28:12;;;;;;;7.82;1.95;;;;;;;2.99;57.76;102600.28;5038421;28;20056;-69
2023/04/16 01:30:39;;;;;;;2.30;0.85;;;;;;;2.94;57.04;102587.22;5038434;28;20045;-69
2023/04/16 01:33:06;;;;;;;3.00;0.77;;;;;;;2.91;57.83;102590.53;5043961;28;20053;-68
2023/04/16 01:35:33;;;;;;;1.77;1.20;;;;;;;2.91;57.86;102590.53;5036626;28;20049;-69
2023/04/16 01:38:02;;;;;;;3.25;1.10;;;;;;;2.86;57.73;102586.88;5042832;28;20056;-69
2023/04/16 01:40:29;;;;;;;5.70;1.25;;;;;;;2.88;57.78;102582.66;5047024;28;20399;-69
2023/04/16 01:42:56;;;;;;;1.10;0.70;;;;;;;2.85;57.50;102582.53;5044512;28;20099;-69
2023/04/16 01:45:23;;;;;;;3.13;1.35;;;;;;;2.84;57.94;102585.94;5045151;28;20052;-69
2023/04/16 01:47:50;;;;;;;4.25;0.90;;;;;;;2.84;57.91;102583.34;5046169;28;20049;-69
2023/04/16 01:50:18;;;;;;;4.07;0.80;;;;;;;2.80;57.67;102586.63;5042630;28;20464;-69
2023/04/16 01:52:45;;;;;;;3.92;0.88;;;;;;;2.81;58.01;102585.78;5050631;28;20077;-69
2023/04/16 01:55:13;;;;;;;4.20;0.75;;;;;;;2.78;57.60;102585.66;5045700;28;20048;-69
2023/04/16 01:57:40;;;;;;;4.63;0.98;;;;;;;2.77;57.73;102575.28;5038949;28;20107;-70
2023/04/16 02:00:08;;;;;;;4.10;0.93;;;;;;;2.75;58.18;102580.38;5042834;28;20056;-68
2023/04/16 02:02:35;;;;;;;1.73;0.88;;;;;;;2.75;57.81;102582.97;5045517;28;20048;-68
2023/04/16 02:05:02;;;;;;;2.70;0.82;;;;;;;2.72;58.40;102582.84;5038922;28;20140;-69
2023/04/16 02:07:30;;;;;;;3.38;0.90;;;;;;;2.70;58.34;102589.63;5040561;28;20512;-69
2023/04/16 02:09:58;;;;;;;5.18;1.95;;;;;;;2.67;58.20;102577.47;5036479;28;20520;-69
2023/04/16 02:12:26;;;;;;;3.33;1.10;;;;;;;2.67;58.18;102581.75;5041650;28;20053;-69
2023/04/16 02:14:53;;;;;;;4.57;1.17;;;;;;;2.64;58.10;102576.47;5038183;28;20059;-69
2023/04/16 02:17:20;;;;;;;3.33;0.95;;;;;;;2.63;58.47;102574.69;5041716;28;20048;-69
2023/04/16 02:19:47;;;;;;;4.43;1.10;;;;;;;2.60;58.26;102579.72;5042274;28;20461;-69
2023/04/16 02:22:14;;;;;;;3.05;1.00;;;;;;;2.54;58.55;102570.03;5041765;28;20057;-69
2023/04/16 02:24:41;;;;;;;5.00;0.80;;;;;;;2.55;58.32;102586.38;5033222;28;20042;-68
2023/04/16 02:27:07;;;;;;;2.72;1.08;;;;;;;2.52;58.48;102583.69;5041939;28;20064;-68
2023/04/16 02:29:36;;;;;;;3.63;0.90;;;;;;;2.50;58.73;102587.88;5040733;28;20124;-69
2023/04/16 02:32:03;;;;;;;2.97;1.08;;;;;;;2.44;58.63;102584.22;5041721;28;20521;-70
2023/04/16 02:34:30;;;;;;;2.60;1.17;;;;;;;2.43;59.26;102587.63;5040353;28;20056;-70
2023/04/16 02:36:57;;;;;;;4.43;1.23;;;;;;;2.40;59.26;102587.47;5039635;28;20055;-71
2023/04/16 02:39:24;;;;;;;2.53;0.90;;;;;;;2.38;59.08;102590.81;5043651;28;20138;-69
2023/04/16 02:41:51;;;;;;;3.20;1.35;;;;;;;2.35;58.75;102588.97;5046707;28;20144;-68
2023/04/16 02:44:18;;;;;;;3.28;1.00;;;;;;;2.31;58.87;102583.63;5043476;28;20821;-78
2023/04/16 02:46:46;;;;;;;2.05;0.98;;;;;;;2.30;59.20;102585.31;5041167;28;20474;-77
2023/04/16 02:49:13;;;;;;;2.22;0.70;;;;;;;2.27;59.02;102587.75;5047503;28;20048;-77
2023/04/16 02:51:40;;;;;;;1.85;0.90;;;;;;;2.23;58.92;102584.16;5046443;28;20522;-78
2023/04/16 02:54:06;;;;;;;2.70;0.82;;;;;;;2.21;59.76;102588.34;5043229;28;20048;-77
2023/04/16 02:56:33;;;;;;;3.50;1.10;;;;;;;2.17;59.68;102588.16;5044812;28;20049;-78
2023/04/16 02:59:00;;;;;;;3.35;1.00;;;;;;;2.12;59.11;102590.53;5039634;28;20046;-78
2023/04/16 03:01:28;;;;;;;2.83;0.93;;;;;;;2.06;59.52;102576.50;5044111;28;20052;-78
2023/04/16 03:03:56;;;;;;;2.67;1.08;;;;;;;2.08;59.45;102580.00;5045226;28;20067;-77
2023/04/16 03:06:23;;;;;;;4.00;1.05;;;;;;;2.03;59.70;102585.84;5044129;28;20055;-78
2023/04/16 03:08:50;;;;;;;3.28;1.13;;;;;;;2.03;59.77;102590.13;5045147;28;20069;-79
2023/04/16 03:11:17;;;;;;;2.83;1.10;;;;;;;1.99;59.53;102598.50;5046696;28;20045;-78
2023/04/16 03:13:44;;;;;;;2.05;1.00;;;;;;;1.95;59.74;102602.63;5043670;28;20060;-78
2023/04/16 03:16:11;;;;;;;6.07;1.02;;;;;;;1.93;60.20;102604.25;5039122;28;20497;-78
2023/04/16 03:18:38;;;;;;;5.43;1.67;;;;;;;1.92;59.42;102601.63;5041482;28;20525;-78
2023/04/16 03:21:06;;;;;;;3.08;1.13;;;;;;;1.91;60.07;102600.75;5042058;28;20049;-77
2023/04/16 03:23:34;;;;;;;3.17;1.20;;;;;;;1.89;59.64;102598.91;5046376;28;20060;-77
2023/04/16 03:26:01;;;;;;;2.58;0.80;;;;;;;1.87;59.54;102598.81;5045718;28;20466;-78
2023/04/16 03:28:28;;;;;;;4.40;1.08;;;;;;;1.86;59.77;102601.34;5043870;28;20059;-77
2023/04/16 03:30:55;;;;;;;1.95;1.13;;;;;;;1.72;59.69;102577.50;5041028;28;20050;-77
2023/04/16 03:33:21;;;;;;;2.40;0.90;;;;;;;1.76;59.82;102594.88;5040389;28;20494;-80
2023/04/16 03:35:55;;;;;;;3.83;0.88;;;;;;;1.62;60.52;102575.31;5043533;28;20429;-77
2023/04/16 03:38:23;;;;;;;2.75;1.00;;;;;;;1.74;60.24;102599.09;5038187;28;20053;-77
2023/04/16 03:40:50;;;;;;;3.90;0.85;;;;;;;1.71;60.39;102596.38;5045839;28;20060;-78
2023/04/16 03:43:17;;;;;;;3.58;2.00;;;;;;;1.68;60.62;102601.34;5044234;28;20045;-77
2023/04/16 03:45:45;;;;;;;14.63;1.77;;;;;;;1.66;60.90;102593.56;5038535;28;20065;-77
2023/04/16 03:48:11;;;;;;;3.13;1.05;;;;;;;1.65;60.61;102593.47;5037214;28;20060;-77
2023/04/16 03:50:38;;;;;;;3.83;0.85;;;;;;;1.61;60.60;102592.44;5050441;28;20425;-78
2023/04/16 03:53:05;;;;;;;5.40;1.30;;;;;;;1.61;60.61;102594.16;5044061;28;20045;-77
2023/04/16 03:55:35;;;;;;;5.60;1.23;;;;;;;1.62;60.21;102601.06;5043479;28;20052;-78
2023/04/16 03:58:03;;;;;;;7.50;1.27;;;;;;;1.61;60.98;102597.59;5044627;28;20412;-77
2023/04/16 04:00:30;;;;;;;5.93;2.75;;;;;;;1.57;60.60;102583.72;5041377;28;20041;-77
2023/04/16 04:02:57;;;;;;;3.45;1.08;;;;;;;1.58;60.63;102600.91;5040979;28;20045;-77
2023/04/16 04:05:24;;;;;;;5.50;0.98;;;;;;;1.54;60.83;102599.03;5045266;28;20045;-78
2023/04/16 04:07:51;;;;;;;1.45;0.88;;;;;;;1.55;60.52;102597.31;5049990;28;20195;-77
2023/04/16 04:10:18;;;;;;;2.28;1.00;;;;;;;1.53;61.31;102599.81;5040042;28;20041;-78
2023/04/16 04:12:46;;;;;;;4.95;1.13;;;;;;;1.52;61.22;102594.59;5039529;28;20046;-78
2023/04/16 04:15:13;;;;;;;2.08;0.88;;;;;;;1.52;61.02;102604.91;5045948;28;20390;-78
2023/04/16 04:17:40;;;;;;;1.80;0.98;;;;;;;1.48;61.05;102595.25;5040184;28;20486;-78
2023/04/16 04:20:08;;;;;;;3.55;0.90;;;;;;;1.49;61.63;102591.88;5040654;28;20045;-77
2023/04/16 04:22:35;;;;;;;3.50;1.50;;;;;;;1.49;61.56;102591.88;5040762;28;20056;-78
2023/04/16 04:25:02;;;;;;;3.47;1.00;;;;;;;1.49;61.57;102594.47;5046676;28;20089;-78
2023/04/16 04:27:29;;;;;;;3.60;1.10;;;;;;;1.49;61.34;102602.19;5055030;28;20053;-77
2023/04/16 04:29:57;;;;;;;1.80;1.10;;;;;;;1.51;61.35;102609.19;5048693;28;20045;-78
2023/04/16 04:32:25;;;;;;;1.77;0.90;;;;;;;1.52;61.76;102605.78;5048117;28;20049;-78
2023/04/16 04:34:52;;;;;;;2.75;1.27;;;;;;;1.49;61.82;102602.19;5048548;28;20061;-77
2023/04/16 04:37:19;;;;;;;5.28;1.48;;;;;;;1.56;62.10;102607.69;5046515;28;20120;-78
2023/04/16 04:39:46;;;;;;;3.90;1.20;;;;;;;1.59;61.63;102606.94;5051881;28;20071;-78
2023/04/16 04:42:13;;;;;;;3.25;1.42;;;;;;;1.50;61.95;102591.06;5046143;28;20049;-79
2023/04/16 04:44:40;;;;;;;4.80;1.35;;;;;;;1.64;62.42;102614.91;5048351;28;20048;-79
2023/04/16 04:47:08;;;;;;;1.98;1.15;;;;;;;1.65;62.08;102606.34;5043034;28;20041;-79
2023/04/16 04:49:35;;;;;;;3.20;1.02;;;;;;;1.69;62.05;102606.59;5040059;28;20046;-78
2023/04/16 04:52:02;;;;;;;3.47;1.02;;;;;;;1.73;61.67;102607.59;5044693;28;20045;-80
2023/04/16 04:54:29;;;;;;;2.65;1.08;;;;;;;1.66;62.49;102587.53;5045832;28;20525;-79
2023/04/16 04:56:56;;;;;;;4.55;1.60;;;;;;;1.80;62.56;102613.13;5043148;28;20449;-79
2023/04/16 04:59:23;;;;;;;2.40;0.90;;;;;;;1.87;62.58;102615.97;5047165;28;20086;-79
2023/04/16 05:01:50;;;;;;;4.32;1.05;;;;;;;1.91;61.87;102620.50;5044423;28;20048;-79
2023/04/16 05:04:19;;;;;;;3.88;1.20;;;;;;;1.94;61.64;102610.31;5043351;28;20046;-79
2023/04/16 05:06:46;;;;;;;4.95;1.00;;;;;;;1.98;62.27;102618.25;5046229;28;20057;-78
2023/04/16 05:09:12;;;;;;;2.47;0.80;;;;;;;2.07;61.72;102619.47;5037938;28;20046;-79
2023/04/16 05:11:41;;;;;;;4.20;1.27;;;;;;;2.12;61.23;102618.00;5048745;28;20044;-80
2023/04/16 05:14:08;;;;;;;2.83;1.83;;;;;;;2.14;61.57;102606.06;5048243;28;20060;-79
2023/04/16 05:16:36;;;;;;;4.88;1.10;;;;;;;2.21;61.64;102606.41;5041036;28;20067;-79
2023/04/16 05:19:03;;;;;;;3.47;1.00;;;;;;;2.25;61.73;102604.88;5049375;28;20087;-79
2023/04/16 05:21:31;;;;;;;4.30;1.48;;;;;;;2.33;61.67;102611.22;5046056;28;20515;-79
2023/04/16 05:23:59;;;;;;;4.05;1.10;;;;;;;2.38;61.85;102614.91;5049976;28;20049;-79
2023/04/16 05:26:26;;;;;;;4.15;1.30;;;;;;;2.43;61.31;102612.53;5049357;28;20049;-78
2023/04/16 05:28:53;;;;;;;4.43;1.55;;;;;;;2.44;60.99;102599.69;5050259;28;20053;-78
2023/04/16 05:31:19;;;;;;;2.83;0.90;;;;;;;2.48;61.05;102588.72;5046813;28;20045;-79
2023/04/16 05:33:46;;;;;;;2.88;1.05;;;;;;;2.57;60.84;102592.50;5045613;28;20050;-79
2023/04/16 05:36:13;;;;;;;1.58;1.00;;;;;;;2.61;61.48;102597.84;5039259;28;20045;-80
2023/04/16 05:38:41;;;;;;;2.10;0.80;;;;;;;2.67;61.09;102589.50;5049314;28;20128;-79
2023/04/16 05:41:08;;;;;;;4.63;1.35;;;;;;;2.64;60.92;102581.63;5048690;28;20135;-78
2023/04/16 05:43:35;;;;;;;4.53;0.93;;;;;;;2.77;60.73;102588.19;5041277;28;20049;-80
2023/04/16 05:46:02;;;;;;;4.65;1.70;;;;;;;2.80;61.33;102596.94;5043468;28;20071;-79
2023/04/16 05:48:32;;;;;;;7.88;1.77;;;;;;;2.85;61.24;102592.00;5048563;28;20084;-79
2023/04/16 05:50:58;;;;;;;4.10;1.08;;;;;;;2.88;60.80;102592.13;5042117;28;20055;-79
2023/04/16 05:53:25;;;;;;;2.75;1.63;;;;;;;2.92;60.87;102597.47;5042113;28;20056;-78
2023/04/16 05:55:54;;;;;;;5.22;1.30;;;;;;;2.89;60.88;102578.38;5046847;28;20056;-79
2023/04/16 05:58:21;;;;;;;5.05;1.20;;;;;;;2.98;60.99;102599.41;5044866;28;20142;-79
2023/04/16 06:00:47;;;;;;;3.17;0.98;;;;;;;3.03;60.75;102591.88;5042445;28;20047;-79
2023/04/16 06:03:14;;;;;;;7.13;1.35;;;;;;;3.07;60.38;102586.00;5043956;28;20128;-79
2023/04/16 06:05:41;;;;;;;5.72;1.25;;;;;;;3.10;60.85;102592.19;5043711;28;20053;-78
2023/04/16 06:08:08;;;;;;;1.48;0.90;;;;;;;3.18;60.58;102597.66;5039561;28;20053;-79
2023/04/16 06:10:35;;;;;;;10.43;2.38;;;;;;;3.20;60.18;102580.53;5049463;28;20783;-78
2023/04/16 06:13:03;;;;;;;4.25;0.93;;;;;;;3.24;60.09;102587.56;5049132;28;20494;-80
2023/04/16 06:15:30;;;;;;;3.45;1.20;;;;;;;3.25;60.35;102578.16;5045469;28;20120;-79
2023/04/16 06:17:58;;;;;;;2.95;1.27;;;;;;;3.35;60.50;102585.44;5046138;28;20382;-79
2023/04/16 06:20:25;;;;;;;2.85;0.88;;;;;;;3.32;60.33;102575.84;5038395;28;20051;-80
2023/04/16 06:22:52;;;;;;;4.97;0.90;;;;;;;3.43;60.24;102578.00;5044618;28;20050;-79
2023/04/16 06:25:19;;;;;;;1.83;0.90;;;;;;;3.46;60.19;102589.31;5048192;28;20049;-79
2023/04/16 06:27:46;;;;;;;5.07;0.95;;;;;;;3.53;59.80;102587.84;5052928;28;20053;-79
2023/04/16 06:30:15;;;;;;;3.58;1.23;;;;;;;3.52;59.96;102584.41;5051382;28;20075;-79
2023/04/16 06:32:43;;;;;;;4.22;1.40;;;;;;;3.60;59.80;102589.88;5047292;28;20055;-78
2023/04/16 06:35:10;;;;;;;4.00;1.08;;;;;;;3.67;59.25;102593.56;5040597;28;20048;-80
2023/04/16 06:37:37;;;;;;;3.28;1.00;;;;;;;3.70;59.14;102594.59;5040436;28;20079;-79
2023/04/16 06:40:05;;;;;;;1.95;1.20;;;;;;;3.72;59.36;102586.88;5041738;28;20113;-80
2023/04/16 06:42:32;;;;;;;11.27;0.82;;;;;;;3.79;58.99;102589.78;5038704;28;20084;-78
2023/04/16 06:44:59;;;;;;;4.68;1.80;;;;;;;3.85;59.38;102590.84;5042023;28;20049;-80
2023/04/16 06:47:27;;;;;;;5.57;1.00;;;;;;;3.89;59.06;102600.47;5043323;28;20501;-80
2023/04/16 06:49:54;;;;;;;3.10;1.10;;;;;;;3.96;58.73;102595.59;5036877;28;20041;-80
2023/04/16 06:52:21;;;;;;;4.47;1.25;;;;;;;4.03;58.41;102594.09;5041943;28;20508;-79
2023/04/16 06:54:48;;;;;;;3.63;1.50;;;;;;;4.10;58.37;102597.78;5048592;28;20053;-78
2023/04/16 06:57:15;;;;;;;4.05;1.20;;;;;;;4.08;58.17;102579.66;5047575;28;20055;-79
2023/04/16 06:59:42;;;;;;;3.00;0.90;;;;;;;4.26;58.07;102603.59;5045044;28;20060;-79
2023/04/16 07:02:10;;;;;;;1.88;1.10;;;;;;;4.35;57.87;102591.81;5040677;28;20045;-80
2023/04/16 07:04:38;;;;;;;2.72;0.93;;;;;;;4.46;58.13;102603.44;5046570;28;20045;-82
2023/04/16 07:07:08;;;;;;;2.50;1.00;;;;;;;4.56;57.75;102597.78;5043302;28;20055;-81
2023/04/16 07:09:34;;;;;;;5.22;1.30;;;;;;;4.67;57.92;102611.97;5046017;28;20051;-81
2023/04/16 07:12:04;;;;;;;4.68;1.08;;;;;;;4.76;57.46;102598.47;5036075;28;20498;-81
2023/04/16 07:14:31;;;;;;;3.30;1.20;;;;;;;4.96;57.52;102599.16;5049080;28;20053;-83
2023/04/16 07:16:58;;;;;;;7.45;1.00;;;;;;;5.08;57.51;102604.75;5046339;28;20132;-81
2023/04/16 07:19:29;;;;;;;3.63;1.00;;;;;;;5.18;56.13;102608.53;5041613;28;20379;-79
2023/04/16 07:21:57;;;;;;;2.53;0.90;;;;;;;5.28;55.64;102607.13;5046423;28;20083;-81
2023/04/16 07:24:24;;;;;;;4.63;1.40;;;;;;;5.37;56.49;102607.41;5045564;28;20409;-80
2023/04/16 07:26:51;;;;;;;2.72;0.95;;;;;;;5.50;55.83;102609.56;5046684;28;20080;-83
2023/04/16 07:29:18;;;;;;;4.22;1.15;;;;;;;5.61;56.02;102595.22;5045580;28;20045;-82
2023/04/16 07:31:45;;;;;;;2.75;1.20;;;;;;;5.87;55.42;102608.13;5045775;28;20059;-83
2023/04/16 07:34:12;;;;;;;2.83;1.45;;;;;;;6.04;55.19;102604.34;5043096;28;20052;-83
2023/04/16 07:36:39;;;;;;;3.38;0.68;;;;;;;6.22;55.46;102592.75;5042062;28;20692;-82
2023/04/16 07:39:07;;;;;;;2.38;1.60;;;;;;;6.45;54.66;102603.75;5045786;28;20133;-82
2023/04/16 07:41:34;;;;;;;6.60;1.55;;;;;;;6.60;53.28;102592.91;5042663;28;20059;-82
2023/04/16 07:44:01;;;;;;;9.48;1.00;;;;;;;6.73;53.57;102598.47;5038466;28;20053;-83
2023/04/16 07:46:28;;;;;;;4.95;1.00;;;;;;;6.87;53.62;102598.84;5037343;28;20049;-82
2023/04/16 07:48:55;;;;;;;3.47;0.75;;;;;;;7.04;53.77;102593.22;5042142;28;20041;-82
2023/04/16 07:51:23;;;;;;;3.83;0.98;;;;;;;7.21;53.69;102591.91;5043448;28;20054;-81
2023/04/16 07:53:50;;;;;;;7.55;1.10;;;;;;;7.39;52.98;102599.28;5038264;28;20442;-81
2023/04/16 07:56:18;;;;;;;4.40;1.67;;;;;;;7.54;52.53;102594.44;5042145;28;20056;-82
2023/04/16 07:58:45;;;;;;;7.40;1.23;;;;;;;7.72;52.00;102598.31;5040920;28;20512;-81
2023/04/16 08:01:12;;;;;;;4.68;1.05;;;;;;;7.89;51.83;102587.41;5040503;28;20414;-81
2023/04/16 08:03:39;;;;;;;3.55;1.60;;;;;;;8.07;51.56;102589.53;5036766;28;20124;-80
2023/04/16 08:06:06;;;;;;;2.60;1.45;;;;;;;8.21;50.62;102587.22;5044365;28;20059;-82
2023/04/16 08:08:33;;;;;;;4.60;1.17;;;;;;;8.35;49.68;102582.28;5045314;28;20147;-81
2023/04/16 08:11:00;;;;;;;4.40;1.30;;;;;;;8.54;49.70;102596.59;5041402;28;20051;-82
2023/04/16 08:13:28;;;;;;;5.38;1.20;;;;;;;8.64;49.44;102595.88;5039937;28;20056;-83
2023/04/16 08:15:55;;;;;;;8.80;1.30;;;;;;;8.76;49.12;102590.91;5050418;28;20069;-81
2023/04/16 08:18:22;;;;;;;1.85;1.08;;;;;;;8.86;49.08;102598.91;5044006;28;20103;-82
2023/04/16 08:20:49;;;;;;;5.18;1.52;;;;;;;8.92;48.88;102593.78;5042633;28;20354;-81
2023/04/16 08:23:16;;;;;;;6.68;1.10;;;;;;;9.06;48.45;102602.72;5041830;28;20045;-81
2023/04/16 08:25:42;;;;;;;2.88;1.02;;;;;;;9.06;48.45;102584.47;5036446;28;20046;-81
2023/04/16 08:28:09;;;;;;;3.42;1.10;;;;;;;9.22;48.19;102596.94;5041971;28;20079;-81
2023/04/16 08:30:38;;;;;;;5.57;1.13;;;;;;;9.31;47.64;102593.59;5045762;28;20056;-79
2023/04/16 08:33:05;;;;;;;4.53;1.42;;;;;;;9.38;47.02;102594.56;5033693;28;20045;-81
2023/04/16 08:35:32;;;;;;;5.78;1.63;;;;;;;9.40;45.80;102592.84;5038555;28;20136;-81
2023/04/16 08:38:00;;;;;;;1.83;1.25;;;;;;;9.45;46.03;102588.59;5038313;28;20049;-80
2023/04/16 08:40:29;;;;;;;2.80;0.98;;;;;;;9.48;46.27;102598.16;5045603;28;20057;-80
2023/04/16 08:42:59;;;;;;;4.53;1.27;;;;;;;9.51;46.02;102599.13;5048270;28;20056;-79
2023/04/16 08:45:27;;;;;;;4.18;1.35;;;;;;;9.53;45.18;102600.00;5038023;28;20064;-80
2023/04/16 08:47:55;;;;;;;5.75;1.30;;;;;;;9.53;45.60;102593.91;5044553;28;20136;-80
2023/04/16 08:50:24;;;;;;;1.70;1.05;;;;;;;9.55;45.01;102595.69;5046456;28;20128;-81
2023/04/16 08:52:52;;;;;;;2.33;1.00;;;;;;;9.56;45.29;102600.06;5040680;28;20046;-80
2023/04/16 08:55:23;;;;;;;9.98;1.35;;;;;;;9.58;44.80;102598.34;5044193;28;20040;-80
2023/04/16 08:57:54;;;;;;;2.50;0.95;;;;;;;9.58;44.74;102598.34;5039334;28;20103;-81
2023/04/16 09:00:21;;;;;;;3.30;0.85;;;;;;;9.60;45.13;102596.63;5043122;28;20049;-80
2023/04/16 09:02:50;;;;;;;5.57;1.17;;;;;;;9.61;43.98;102595.78;5041262;28;20049;-80
2023/04/16 09:05:20;;;;;;;4.80;1.10;;;;;;;9.59;44.05;102592.28;5036762;28;20057;-80
2023/04/16 09:07:47;;;;;;;4.00;1.17;;;;;;;9.59;44.45;102594.00;5050218;28;20107;-79
2023/04/16 09:10:15;;;;;;;3.53;0.77;;;;;;;9.58;44.49;102582.69;5042720;28;20041;-80
2023/04/16 09:12:42;;;;;;;6.05;1.23;;;;;;;9.61;44.09;102579.25;5045105;28;20052;-80
2023/04/16 09:15:11;;;;;;;5.07;1.05;;;;;;;9.65;43.65;102591.50;5044731;28;20041;-81
2023/04/16 09:17:38;;;;;;;2.35;1.00;;;;;;;9.68;44.20;102584.59;5050157;28;20049;-80
2023/04/16 09:20:07;;;;;;;3.55;0.93;;;;;;;9.71;44.06;102588.97;5040090;28;20045;-79
2023/04/16 09:22:36;;;;;;;4.72;1.15;;;;;;;9.73;42.88;102581.16;5049109;28;20042;-79
2023/04/16 09:25:03;;;;;;;2.22;1.17;;;;;;;9.74;42.46;102593.34;5038176;28;20052;-80
2023/04/16 09:27:30;;;;;;;3.35;1.15;;;;;;;9.73;42.36;102592.44;5042411;28;20417;-80
2023/04/16 09:29:58;;;;;;;9.55;1.13;;;;;;;9.76;42.66;102594.22;5040828;28;20489;-80
2023/04/16 09:32:26;;;;;;;3.38;0.90;;;;;;;9.82;42.90;102589.13;5054278;28;20048;-80
2023/04/16 09:34:57;;;;;;;3.20;0.90;;;;;;;9.84;43.15;102590.88;5049973;28;20060;-79
2023/04/16 09:37:24;;;;;;;4.30;1.00;;;;;;;9.88;42.78;102595.28;5041273;28;20053;-80
2023/04/16 09:39:58;;;;;;;1.83;1.10;;;;;;;9.93;42.57;102589.25;5047870;28;20047;-81
2023/04/16 09:42:27;;;;;;;2.78;1.27;;;;;;;9.96;42.54;102595.41;5053250;28;20049;-80
2023/04/16 09:44:55;;;;;;;4.20;1.38;;;;;;;10.01;41.05;102595.44;5048359;28;20056;-79
2023/04/16 09:47:22;;;;;;;4.03;1.10;;;;;;;10.00;41.17;102596.31;5048909;28;20087;-79
2023/04/16 09:49:49;;;;;;;3.20;0.60;;;;;;;9.96;40.90;102587.56;5043368;28;20056;-80
2023/04/16 09:52:18;;;;;;;2.97;1.40;;;;;;;10.00;41.26;102596.31;5046135;28;20041;-80
2023/04/16 09:54:49;;;;;;;2.22;1.23;;;;;;;10.04;41.46;102596.34;5049068;28;20417;-78
2023/04/16 09:57:21;;;;;;;5.47;0.98;;;;;;;10.07;40.65;102598.13;5038279;28;20439;-79
2023/04/16 09:59:48;;;;;;;2.42;0.90;;;;;;;10.08;40.47;102592.94;5042724;28;20052;-79
2023/04/16 10:02:15;;;;;;;2.65;0.85;;;;;;;10.10;40.89;102585.13;5050779;28;20045;-79
2023/04/16 10:04:49;;;;;;;2.13;0.90;;;;;;;10.14;40.71;102595.63;5042201;28;20133;-80
2023/04/16 10:07:16;;;;;;;8.07;0.93;;;;;;;10.17;39.88;102596.53;5043074;28;20049;-80
2023/04/16 10:09:43;;;;;;;3.42;1.08;;;;;;;10.16;39.28;102598.28;5041381;28;20057;-79
2023/04/16 10:12:11;;;;;;;3.17;0.85;;;;;;;10.16;39.50;102592.16;5036158;28;20053;-79
2023/04/16 10:14:40;;;;;;;2.22;0.95;;;;;;;10.17;39.37;102596.53;5052962;28;20051;-80
2023/04/16 10:17:07;;;;;;;2.38;0.93;;;;;;;10.18;39.26;102600.88;5044174;28;20091;-78
2023/04/16 10:19:34;;;;;;;3.63;0.70;;;;;;;10.14;39.64;102589.53;5048956;28;20403;-79
2023/04/16 10:22:01;;;;;;;2.95;0.80;;;;;;;10.19;39.00;102592.19;5050054;28;20050;-79
2023/04/16 10:24:29;;;;;;;6.05;1.63;;;;;;;10.20;38.91;102591.34;5045473;28;20131;-79
2023/04/16 10:26:57;;;;;;;8.43;1.83;;;;;;;10.16;37.68;102592.16;5038878;28;20049;-78
2023/04/16 10:29:26;;;;;;;2.88;1.20;;;;;;;10.11;37.69;102599.94;5051133;28;20053;-78
2023/04/16 10:31:56;;;;;;;3.20;0.95;;;;;;;10.03;38.00;102585.91;5044986;28;20409;-78
2023/04/16 10:34:24;;;;;;;2.25;1.20;;;;;;;10.05;37.56;102595.53;5050338;28;20051;-79
2023/04/16 10:36:52;;;;;;;4.03;0.77;;;;;;;9.91;37.41;102584.03;5044522;28;20049;-79
2023/04/16 10:39:21;;;;;;;5.55;0.88;;;;;;;10.00;37.49;102602.41;5046296;28;20053;-79
2023/04/16 10:41:49;;;;;;;4.65;0.75;;;;;;;9.97;37.29;102598.88;5035691;28;20057;-78
2023/04/16 10:44:18;;;;;;;1.45;0.80;;;;;;;9.95;36.23;102593.63;5049265;28;20051;-78
2023/04/16 10:46:48;;;;;;;4.10;0.98;;;;;;;9.94;36.17;102606.69;5049102;28;20083;-79
2023/04/16 10:49:18;;;;;;;4.03;0.95;;;;;;;9.91;36.68;102608.38;5041104;28;20522;-78
2023/04/16 10:51:55;;;;;;;3.83;1.60;;;;;;;9.90;37.07;102608.34;5046456;28;20788;-79
2023/04/16 10:54:26;;;;;;;5.93;1.50;;;;;;;9.90;37.13;102609.25;5034484;28;20050;-78
2023/04/16 10:56:54;;;;;;;3.88;1.23;;;;;;;9.88;37.08;102607.47;5044605;28;20540;-78
2023/04/16 10:59:22;;;;;;;2.95;0.80;;;;;;;9.86;36.89;102615.28;5039329;28;20051;-78
2023/04/16 11:01:51;;;;;;;4.53;1.00;;;;;;;9.85;36.83;102603.09;5045132;28;20519;-79
2023/04/16 11:04:33;;;;;;;1.83;1.13;;;;;;;9.85;36.48;102604.81;5041968;28;20042;-78
2023/04/16 11:07:05;;;;;;;1.60;0.80;;;;;;;9.85;36.41;102605.69;5042561;28;20046;-79
2023/04/16 11:09:46;;;;;;;3.20;1.10;;;;;;;9.85;37.05;102604.81;5035587;28;20055;-78
2023/04/16 11:12:14;;;;;;;5.68;1.00;;;;;;;9.83;36.88;102616.97;5046952;28;20052;-79
2023/04/16 11:14:42;;;;;;;7.63;0.73;;;;;;;9.76;37.05;102595.13;5048015;28;20418;-78
2023/04/16 11:17:09;;;;;;;7.72;1.58;;;;;;;9.84;36.39;102603.91;5043825;28;20512;-79
2023/04/16 11:19:38;;;;;;;2.25;0.80;;;;;;;9.84;37.04;102606.53;5047116;28;20056;-79
2023/04/16 11:22:05;;;;;;;3.15;1.02;;;;;;;9.85;37.28;102600.47;5044048;28;20516;-79
2023/04/16 11:24:32;;;;;;;5.63;0.75;;;;;;;9.80;36.68;102598.66;5047745;28;20412;-78
2023/04/16 11:26:59;;;;;;;1.88;1.00;;;;;;;9.85;37.37;102605.69;5045906;28;20512;-79
2023/04/16 11:29:26;;;;;;;6.80;1.17;;;;;;;9.86;37.02;102598.75;5050315;28;20442;-79
2023/04/16 11:31:54;;;;;;;1.90;0.90;;;;;;;9.85;37.10;102603.09;5046790;28;20048;-79
2023/04/16 11:34:21;;;;;;;4.82;0.90;;;;;;;9.86;37.02;102614.41;5051548;28;20046;-77